Time;durP1;ratioP1;P1;durP2;ratioP2;P2;SDS_P1;SDS_P2;PMS_P1;PMS_P2;Temp;Humidity;BMP_temperature;BMP_pressure;BME280_temperature;BME280_humidity;BME280_pressure;Samples;Min_cycle;Max_cycle;Signal;HPM_P1;HPM_P2
2022/03/19 00:00:07;;;;;;;13.63;10.47;;;10.40;44.00;;;;;;6275133;22;20363;-69
2022/03/19 00:02:33;;;;;;;13.23;11.00;;;10.30;43.50;;;;;;6274560;22;20031;-68
2022/03/19 00:04:59;;;;;;;14.43;10.30;;;10.20;44.10;;;;;;6274726;22;19999;-68
2022/03/19 00:07:24;;;;;;;13.83;10.97;;;10.20;45.20;;;;;;6274990;22;20089;-68
2022/03/19 00:09:50;;;;;;;14.43;10.88;;;10.10;45.50;;;;;;6275050;22;20008;-68
2022/03/19 00:12:16;;;;;;;13.37;11.27;;;10.00;44.90;;;;;;6274892;22;20308;-68
2022/03/19 00:14:42;;;;;;;16.03;12.77;;;10.00;44.80;;;;;;6274097;22;20005;-69
2022/03/19 00:17:10;;;;;;;13.67;10.93;;;9.90;45.10;;;;;;6274613;22;20000;-69
2022/03/19 00:19:37;;;;;;;15.00;11.80;;;9.90;45.10;;;;;;6274501;22;20000;-69
2022/03/19 00:22:03;;;;;;;13.90;10.83;;;9.90;45.00;;;;;;6274770;22;20149;-69
2022/03/19 00:24:29;;;;;;;14.07;10.67;;;9.90;44.70;;;;;;6274786;22;20442;-68
2022/03/19 00:26:54;;;;;;;14.53;10.20;;;9.90;45.10;;;;;;6274716;22;19999;-68
2022/03/19 00:29:20;;;;;;;13.93;10.87;;;9.90;45.10;;;;;;6274245;22;20379;-69
2022/03/19 00:31:46;;;;;;;14.27;10.90;;;9.80;45.60;;;;;;6247675;22;20020;-68
2022/03/19 00:34:12;;;;;;;17.60;11.77;;;9.70;46.60;;;;;;6274871;22;20071;-68
2022/03/19 00:36:38;;;;;;;18.13;12.70;;;9.70;45.50;;;;;;6274475;22;20046;-71
2022/03/19 00:39:03;;;;;;;17.47;12.03;;;9.60;46.70;;;;;;6275801;22;20000;-69
2022/03/19 00:41:29;;;;;;;20.27;11.77;;;9.60;46.40;;;;;;6276633;22;20016;-69
2022/03/19 00:43:55;;;;;;;15.77;11.67;;;9.50;47.00;;;;;;6277672;22;20011;-68
2022/03/19 00:46:20;;;;;;;19.17;12.00;;;9.50;47.10;;;;;;6278250;22;20079;-68
2022/03/19 00:48:46;;;;;;;14.93;11.23;;;9.40;46.80;;;;;;6278091;22;20430;-69
2022/03/19 00:51:12;;;;;;;14.63;11.10;;;9.40;46.80;;;;;;6278088;22;20087;-68
2022/03/19 00:53:38;;;;;;;17.40;12.43;;;9.30;47.60;;;;;;6278114;22;20070;-69
2022/03/19 00:56:04;;;;;;;15.97;11.70;;;9.30;47.30;;;;;;6276551;22;20038;-68
2022/03/19 00:58:29;;;;;;;15.13;10.90;;;9.30;47.00;;;;;;6276478;22;20068;-68
2022/03/19 01:00:55;;;;;;;14.23;11.20;;;9.20;47.50;;;;;;6275645;22;20363;-68
2022/03/19 01:03:21;;;;;;;15.43;10.37;;;9.20;46.80;;;;;;6276305;22;20010;-68
2022/03/19 01:05:46;;;;;;;14.50;11.53;;;9.20;48.20;;;;;;6276528;22;20027;-69
2022/03/19 01:08:12;;;;;;;15.97;10.83;;;9.20;47.30;;;;;;6276461;22;20354;-68
2022/03/19 01:10:39;;;;;;;15.60;10.90;;;9.20;48.10;;;;;;6276434;22;20047;-68
2022/03/19 01:13:06;;;;;;;22.30;11.80;;;9.10;48.40;;;;;;6275975;22;20007;-68
2022/03/19 01:15:32;;;;;;;13.80;11.30;;;9.00;47.40;;;;;;6275739;22;20074;-70
2022/03/19 01:17:58;;;;;;;17.50;11.47;;;9.00;47.60;;;;;;6275572;22;19999;-69
2022/03/19 01:20:27;;;;;;;14.37;11.43;;;9.00;48.40;;;;;;6276601;22;20011;-68
2022/03/19 01:22:53;;;;;;;14.50;11.10;;;8.90;48.80;;;;;;6275639;22;20517;-68
2022/03/19 01:25:19;;;;;;;14.30;11.13;;;8.90;48.70;;;;;;6275832;22;20012;-68
2022/03/19 01:27:47;;;;;;;14.80;11.57;;;;;;;;;;6274782;22;20000;-68
2022/03/19 01:30:16;;;;;;;15.97;11.53;;;8.90;48.20;;;;;;6275334;22;20035;-68
2022/03/19 01:32:42;;;;;;;14.80;11.50;;;8.80;48.70;;;;;;6276019;22;20019;-67
2022/03/19 01:35:09;;;;;;;14.83;11.20;;;8.70;49.50;;;;;;6274825;22;20065;-68
2022/03/19 01:37:35;;;;;;;15.80;11.67;;;8.70;48.60;;;;;;6275564;22;20416;-67
2022/03/19 01:40:01;;;;;;;13.90;10.70;;;8.70;48.60;;;;;;6275000;22;20015;-68
2022/03/19 01:42:28;;;;;;;15.47;11.10;;;;;;;;;;6274731;22;20091;-67
2022/03/19 01:44:55;;;;;;;16.53;11.10;;;8.70;48.40;;;;;;6275315;22;20010;-68
2022/03/19 01:47:23;;;;;;;16.83;11.93;;;8.80;48.70;;;;;;6274941;22;20007;-67
2022/03/19 01:49:49;;;;;;;14.07;10.43;;;8.80;48.70;;;;;;6274552;22;20007;-67
2022/03/19 01:52:15;;;;;;;15.17;12.07;;;8.80;48.80;;;;;;6274321;22;20469;-68
2022/03/19 01:54:44;;;;;;;15.43;11.33;;;8.70;49.00;;;;;;6274509;22;20022;-68
2022/03/19 01:57:14;;;;;;;14.50;11.13;;;8.70;49.10;;;;;;6275087;22;20158;-68
2022/03/19 01:59:42;;;;;;;14.27;10.73;;;8.70;48.80;;;;;;6270379;22;20007;-68
2022/03/19 02:02:10;;;;;;;17.47;11.00;;;8.70;48.60;;;;;;6270476;22;20004;-68
2022/03/19 02:04:37;;;;;;;15.27;10.83;;;8.70;49.90;;;;;;6272348;22;19996;-68
2022/03/19 02:07:03;;;;;;;15.90;11.27;;;8.70;49.90;;;;;;6273353;22;20057;-68
2022/03/19 02:09:29;;;;;;;16.27;11.63;;;8.70;49.10;;;;;;6274827;22;20003;-69
2022/03/19 02:11:55;;;;;;;13.03;11.00;;;8.70;49.00;;;;;;6273965;22;20007;-68
2022/03/19 02:14:21;;;;;;;16.57;11.97;;;8.70;49.30;;;;;;6273060;22;20121;-67
2022/03/19 02:16:47;;;;;;;15.73;11.07;;;8.70;49.30;;;;;;6275036;22;20047;-68
2022/03/19 02:19:13;;;;;;;14.03;11.03;;;8.70;48.90;;;;;;6275558;22;20003;-68
2022/03/19 02:21:48;;;;;;;18.00;11.70;;;8.70;48.40;;;;;;6277044;22;20300;-68
2022/03/19 02:26:59;;;;;;;14.70;10.87;;;8.80;48.10;;;;;;6277317;22;20070;-70
2022/03/19 02:29:25;;;;;;;13.50;11.00;;;8.80;48.20;;;;;;6276848;22;20065;-70
2022/03/19 02:31:54;;;;;;;16.07;11.70;;;8.70;48.60;;;;;;6277015;22;20015;-70
2022/03/19 02:34:21;;;;;;;16.07;11.43;;;8.70;48.50;;;;;;6276901;22;20004;-69
2022/03/19 02:36:47;;;;;;;14.73;11.00;;;8.60;48.80;;;;;;6276770;22;20023;-69
2022/03/19 02:39:28;;;;;;;16.00;11.30;;;8.70;48.60;;;;;;6277054;22;20011;-69
2022/03/19 02:41:55;;;;;;;14.03;10.90;;;8.60;48.80;;;;;;6276621;22;20072;-69
2022/03/19 02:44:22;;;;;;;16.57;11.53;;;8.60;49.40;;;;;;6277000;22;20000;-69
2022/03/19 02:46:56;;;;;;;18.33;12.30;;;8.50;49.40;;;;;;6275711;22;20031;-70
2022/03/19 02:49:23;;;;;;;16.13;11.50;;;8.50;49.30;;;;;;6274452;22;19996;-69
2022/03/19 02:51:51;;;;;;;15.47;11.53;;;8.40;49.50;;;;;;6274446;22;20019;-70
2022/03/19 02:54:19;;;;;;;18.37;12.30;;;8.40;49.60;;;;;;6274754;22;20075;-70
2022/03/19 02:56:45;;;;;;;14.10;11.27;;;8.40;49.40;;;;;;6274088;22;20000;-70
2022/03/19 02:59:26;;;;;;;16.87;12.30;;;8.30;48.90;;;;;;6274468;22;20052;-69
2022/03/19 03:02:12;;;;;;;14.40;10.70;;;8.30;49.50;;;;;;6273461;22;20319;-69
2022/03/19 03:04:38;;;;;;;15.60;11.80;;;;;;;;;;6274891;22;20007;-70
2022/03/19 03:07:04;;;;;;;15.77;11.37;;;8.30;49.60;;;;;;6273977;22;20007;-69
2022/03/19 03:09:32;;;;;;;16.17;12.10;;;8.30;50.00;;;;;;6274996;22;19996;-70
2022/03/19 03:12:02;;;;;;;16.47;11.63;;;8.30;49.50;;;;;;6274052;22;20521;-69
2022/03/19 03:14:28;;;;;;;16.27;10.90;;;8.40;49.70;;;;;;6274328;22;20011;-70
2022/03/19 03:16:58;;;;;;;16.03;11.07;;;8.40;49.20;;;;;;6275561;22;20039;-69
2022/03/19 03:19:24;;;;;;;14.67;11.43;;;8.30;50.00;;;;;;6275976;22;20072;-69
2022/03/19 03:21:49;;;;;;;18.27;11.30;;;8.30;49.40;;;;;;6276180;22;20000;-69
2022/03/19 03:24:16;;;;;;;16.87;10.60;;;8.20;49.40;;;;;;6275704;22;19999;-70
2022/03/19 03:26:42;;;;;;;16.50;12.10;;;8.20;50.30;;;;;;6275722;22;20004;-69
2022/03/19 03:29:08;;;;;;;16.70;11.77;;;8.20;50.10;;;;;;6276241;22;20373;-69
2022/03/19 03:31:35;;;;;;;14.47;12.00;;;8.10;50.70;;;;;;6275695;22;20015;-69
2022/03/19 03:34:02;;;;;;;15.27;11.17;;;8.10;50.50;;;;;;6275997;22;20044;-69
2022/03/19 03:36:28;;;;;;;15.37;11.70;;;8.10;50.80;;;;;;6276195;22;20423;-70
2022/03/19 03:38:53;;;;;;;20.10;12.27;;;8.00;50.40;;;;;;6275871;22;20133;-70
2022/03/19 03:41:19;;;;;;;15.17;11.73;;;8.00;50.40;;;;;;6248604;22;20552;-69
2022/03/19 03:43:45;;;;;;;17.73;13.00;;;8.00;50.70;;;;;;6275560;22;19996;-70
2022/03/19 03:46:12;;;;;;;15.87;11.83;;;7.90;51.00;;;;;;6276084;22;20015;-70
2022/03/19 03:48:38;;;;;;;18.93;12.53;;;7.90;51.70;;;;;;6275525;22;20513;-69
2022/03/19 03:51:08;;;;;;;15.93;12.43;;;7.90;51.70;;;;;;6276032;22;20024;-70
2022/03/19 03:53:35;;;;;;;17.67;12.10;;;7.90;52.10;;;;;;6275507;22;20627;-69
2022/03/19 03:56:02;;;;;;;15.20;11.63;;;7.80;51.40;;;;;;6275755;22;19999;-67
2022/03/19 03:58:28;;;;;;;16.73;12.13;;;7.80;50.80;;;;;;6275545;22;20418;-69
2022/03/19 04:00:54;;;;;;;16.67;12.23;;;7.80;52.10;;;;;;6275968;22;20003;-70
2022/03/19 04:03:20;;;;;;;16.07;11.77;;;7.70;51.10;;;;;;6275429;22;20449;-70
2022/03/19 04:05:46;;;;;;;15.53;11.57;;;7.60;51.80;;;;;;6275391;22;20419;-70
2022/03/19 04:08:12;;;;;;;15.50;12.63;;;7.60;53.30;;;;;;6275378;22;20090;-72
2022/03/19 04:10:37;;;;;;;15.73;11.90;;;7.50;51.60;;;;;;6275494;22;20007;-70
2022/03/19 04:13:03;;;;;;;22.60;12.17;;;7.50;53.30;;;;;;6275424;22;20064;-70
2022/03/19 04:15:29;;;;;;;15.07;11.30;;;7.50;52.40;;;;;;6275548;22;20038;-70
2022/03/19 04:17:55;;;;;;;15.13;11.90;;;7.50;52.70;;;;;;6275490;22;20019;-69
2022/03/19 04:20:22;;;;;;;14.93;11.80;;;7.50;52.60;;;;;;6275454;22;20011;-69
2022/03/19 04:22:49;;;;;;;16.90;11.87;;;7.50;52.20;;;;;;6275617;22;20020;-70
2022/03/19 04:25:20;;;;;;;17.97;12.53;;;7.60;52.60;;;;;;6275182;22;20517;-70
2022/03/19 04:27:49;;;;;;;18.60;12.67;;;7.60;52.80;;;;;;6274981;22;19995;-69
2022/03/19 04:30:16;;;;;;;19.23;13.43;;;7.50;52.40;;;;;;6275346;22;20018;-69
2022/03/19 04:32:45;;;;;;;18.70;13.37;;;7.50;52.30;;;;;;6275427;22;20071;-70
2022/03/19 04:38:01;;;;;;;17.63;12.20;;;7.60;51.60;;;;;;6275468;22;20019;-69
2022/03/19 04:40:26;;;;;;;18.53;12.50;;;7.60;51.50;;;;;;6275429;22;20012;-70
2022/03/19 04:42:52;;;;;;;14.73;11.47;;;7.50;51.80;;;;;;6274847;22;20446;-70
2022/03/19 04:45:19;;;;;;;16.27;11.77;;;7.60;51.40;;;;;;6275809;22;20008;-69
2022/03/19 04:47:45;;;;;;;17.53;11.77;;;7.60;52.00;;;;;;6275294;22;20075;-69
2022/03/19 04:50:10;;;;;;;22.63;13.47;;;7.70;51.30;;;;;;6275078;22;20326;-69
2022/03/19 04:52:37;;;;;;;19.17;12.73;;;7.70;50.40;;;;;;6275616;22;20000;-69
2022/03/19 04:55:04;;;;;;;20.23;12.43;;;7.70;50.50;;;;;;6274747;22;19996;-70
2022/03/19 04:57:30;;;;;;;18.00;12.20;;;7.80;50.70;;;;;;6274766;22;20004;-68
2022/03/19 04:59:58;;;;;;;15.77;11.57;;;7.80;50.70;;;;;;6274844;22;20011;-67
2022/03/19 05:02:24;;;;;;;17.60;12.53;;;7.80;51.00;;;;;;6274446;22;20423;-70
2022/03/19 05:04:51;;;;;;;19.47;12.00;;;7.70;51.10;;;;;;6274906;22;20430;-69
2022/03/19 05:07:19;;;;;;;17.47;12.63;;;7.80;50.60;;;;;;6275563;22;20024;-70
2022/03/19 05:12:35;;;;;;;20.97;11.10;;;7.80;51.50;;;;;;6275026;22;20351;-69
2022/03/19 05:15:00;;;;;;;20.00;12.30;;;7.80;51.10;;;;;;6274401;22;20007;-69
2022/03/19 05:17:26;;;;;;;15.27;11.53;;;7.70;50.90;;;;;;6274640;22;20053;-70
2022/03/19 05:19:52;;;;;;;18.17;12.30;;;7.80;50.90;;;;;;6274786;22;20095;-70
2022/03/19 05:22:18;;;;;;;17.73;12.03;;;7.80;50.40;;;;;;6275250;22;20042;-69
2022/03/19 05:24:44;;;;;;;16.60;12.63;;;7.80;50.80;;;;;;6275459;22;20011;-67
2022/03/19 05:27:11;;;;;;;15.43;12.13;;;7.80;50.60;;;;;;6276457;22;20003;-70
2022/03/19 05:29:36;;;;;;;15.97;12.50;;;7.80;50.80;;;;;;6276463;22;20000;-70
2022/03/19 05:32:04;;;;;;;17.00;12.50;;;7.80;50.70;;;;;;6276333;22;20019;-69
2022/03/19 05:34:29;;;;;;;16.50;11.83;;;7.80;50.40;;;;;;6276793;22;20027;-69
2022/03/19 05:36:56;;;;;;;17.83;12.57;;;7.80;50.90;;;;;;6276598;22;20004;-70
2022/03/19 05:39:22;;;;;;;17.37;11.93;;;7.80;51.30;;;;;;6276028;22;19995;-70
2022/03/19 05:41:48;;;;;;;17.77;12.07;;;7.80;51.20;;;;;;6275598;22;20020;-69
2022/03/19 05:44:14;;;;;;;16.63;11.43;;;7.80;51.70;;;;;;6275197;22;20091;-70
2022/03/19 05:46:39;;;;;;;16.77;11.00;;;7.80;51.00;;;;;;6275419;22;20023;-70
2022/03/19 05:49:05;;;;;;;15.90;11.87;;;7.80;51.40;;;;;;6275357;22;20027;-67
2022/03/19 05:51:31;;;;;;;16.97;11.33;;;7.80;51.30;;;;;;6273087;22;20019;-69
2022/03/19 05:53:57;;;;;;;17.33;11.27;;;7.90;51.20;;;;;;6273786;22;20007;-69
2022/03/19 05:56:24;;;;;;;15.13;11.47;;;7.80;51.60;;;;;;6274307;22;20034;-69
2022/03/19 05:58:50;;;;;;;17.10;11.83;;;7.90;51.20;;;;;;6273627;22;20445;-69
2022/03/19 06:01:16;;;;;;;17.23;11.80;;;7.90;51.70;;;;;;6274186;22;19996;-69
2022/03/19 06:03:42;;;;;;;18.93;11.73;;;7.90;52.10;;;;;;6274157;22;20120;-72
2022/03/19 06:06:08;;;;;;;17.80;12.23;;;7.90;51.50;;;;;;6274525;22;20327;-69
2022/03/19 06:08:33;;;;;;;17.57;12.00;;;8.00;51.00;;;;;;6274779;22;20007;-69
2022/03/19 06:10:59;;;;;;;17.13;12.33;;;8.10;51.00;;;;;;6275013;22;20384;-69
2022/03/19 06:13:26;;;;;;;17.17;12.73;;;8.10;51.20;;;;;;6275920;22;20011;-69
2022/03/19 06:15:52;;;;;;;16.47;12.03;;;8.20;51.70;;;;;;6276261;22;20051;-69
2022/03/19 06:18:17;;;;;;;16.27;12.47;;;8.20;51.30;;;;;;6275628;22;19995;-69
2022/03/19 06:20:43;;;;;;;18.03;12.10;;;8.30;51.30;;;;;;6275325;22;20027;-69
2022/03/19 06:23:09;;;;;;;15.40;11.77;;;8.30;51.30;;;;;;6275104;22;20000;-69
2022/03/19 06:25:35;;;;;;;17.20;12.07;;;8.40;51.60;;;;;;6274623;22;20375;-69
2022/03/19 06:28:02;;;;;;;16.03;11.47;;;8.50;50.40;;;;;;6275461;22;20422;-69
2022/03/19 06:30:29;;;;;;;15.70;12.20;;;8.50;51.30;;;;;;6276709;22;20084;-69
2022/03/19 06:32:56;;;;;;;17.70;12.47;;;8.60;49.30;;;;;;6277262;22;20052;-68
2022/03/19 06:38:06;;;;;;;20.20;12.10;;;8.80;49.00;;;;;;6278459;22;20456;-69
2022/03/19 06:40:31;;;;;;;19.93;12.87;;;8.90;49.10;;;;;;6277024;22;19996;-69
2022/03/19 06:42:57;;;;;;;15.90;12.07;;;8.90;49.10;;;;;;6276807;22;20019;-69
2022/03/19 06:45:23;;;;;;;19.17;12.47;;;9.10;48.00;;;;;;6277183;22;20300;-70
2022/03/19 06:47:49;;;;;;;18.73;11.87;;;9.10;47.50;;;;;;6276977;22;20000;-69
2022/03/19 06:50:16;;;;;;;15.60;11.97;;;9.20;47.50;;;;;;6276624;22;20000;-69
2022/03/19 06:52:42;;;;;;;22.80;12.57;;;9.30;46.90;;;;;;6277123;22;20387;-69
2022/03/19 06:55:08;;;;;;;20.00;13.30;;;9.50;46.90;;;;;;6277057;22;20000;-69
2022/03/19 06:57:34;;;;;;;14.30;11.33;;;9.60;46.30;;;;;;6277057;22;20077;-69
2022/03/19 07:00:00;;;;;;;21.83;12.20;;;9.70;46.20;;;;;;6277123;22;19995;-69
2022/03/19 07:02:26;;;;;;;15.53;12.10;;;9.70;46.10;;;;;;6276667;22;20004;-68
2022/03/19 07:04:52;;;;;;;20.73;12.40;;;9.80;46.20;;;;;;6276755;22;20333;-69
2022/03/19 07:07:18;;;;;;;20.33;12.47;;;9.90;45.80;;;;;;6276726;22;20419;-69
2022/03/19 07:09:44;;;;;;;17.43;12.43;;;10.00;46.10;;;;;;6276934;22;20003;-69
2022/03/19 07:12:13;;;;;;;16.30;11.87;;;10.10;44.90;;;;;;6276808;22;20014;-69
2022/03/19 07:14:39;;;;;;;16.77;11.70;;;10.10;44.20;;;;;;6276595;22;20011;-69
2022/03/19 07:17:05;;;;;;;15.13;11.90;;;10.20;43.80;;;;;;6276778;22;20430;-69
2022/03/19 07:19:31;;;;;;;16.30;11.37;;;10.30;43.30;;;;;;6276955;22;20031;-69
2022/03/19 07:21:57;;;;;;;14.50;10.90;;;10.30;42.90;;;;;;6276570;22;20450;-70
2022/03/19 07:24:23;;;;;;;14.47;10.63;;;10.40;43.20;;;;;;6276724;22;20007;-72
2022/03/19 07:26:49;;;;;;;17.43;10.50;;;10.40;43.70;;;;;;6276569;22;19996;-69
2022/03/19 07:29:18;;;;;;;20.40;11.47;;;10.50;43.30;;;;;;6276550;22;20034;-72
2022/03/19 07:31:45;;;;;;;15.50;11.97;;;10.60;43.00;;;;;;6276410;22;20334;-72
2022/03/19 07:34:10;;;;;;;19.23;12.30;;;10.70;43.30;;;;;;6276367;22;20000;-71
2022/03/19 07:36:36;;;;;;;14.80;11.83;;;10.70;43.60;;;;;;6276342;22;20043;-74
2022/03/19 07:39:02;;;;;;;15.65;11.07;;;10.90;42.60;;;;;;6276145;22;20026;-74
2022/03/19 07:41:48;;;;;;;22.05;11.60;;;10.90;42.80;;;;;;6275326;22;20446;-74
2022/03/19 07:44:14;;;;;;;19.15;11.48;;;11.00;42.40;;;;;;6275099;22;20023;-69
2022/03/19 07:46:42;;;;;;;18.05;11.90;;;11.10;42.40;;;;;;6275094;22;20000;-74
2022/03/19 07:49:08;;;;;;;14.60;11.38;;;11.20;42.50;;;;;;6275768;22;19996;-72
2022/03/19 07:51:33;;;;;;;16.58;11.48;;;11.20;42.20;;;;;;6275563;22;20465;-71
2022/03/19 07:53:59;;;;;;;15.98;11.27;;;11.30;42.70;;;;;;6248965;22;20004;-74
2022/03/19 07:56:26;;;;;;;15.15;11.90;;;11.30;42.10;;;;;;6276239;22;20016;-71
2022/03/19 07:58:52;;;;;;;16.52;10.45;;;11.40;42.10;;;;;;6275939;22;20392;-70
2022/03/19 08:01:19;;;;;;;13.82;10.93;;;11.50;41.60;;;;;;6276100;22;20011;-73
2022/03/19 08:03:45;;;;;;;15.13;10.68;;;11.60;41.70;;;;;;6275935;22;20007;-74
2022/03/19 08:06:11;;;;;;;16.08;11.00;;;11.70;41.80;;;;;;6276063;22;20378;-73
2022/03/19 08:08:37;;;;;;;17.58;12.27;;;11.70;41.10;;;;;;6275711;22;20346;-78
2022/03/19 08:11:04;;;;;;;18.67;12.32;;;11.80;41.40;;;;;;6275262;22;20026;-71
2022/03/19 08:13:30;;;;;;;16.48;12.35;;;11.90;41.00;;;;;;6272820;22;20000;-71
2022/03/19 08:15:56;;;;;;;14.63;11.98;;;11.90;40.40;;;;;;6273916;22;20004;-72
2022/03/19 08:18:22;;;;;;;17.85;12.35;;;12.00;40.20;;;;;;6275065;22;20010;-76
2022/03/19 08:20:48;;;;;;;15.35;11.43;;;12.00;40.50;;;;;;6273377;22;20026;-70
2022/03/19 08:23:15;;;;;;;15.55;11.93;;;12.10;40.40;;;;;;6274949;22;20000;-70
2022/03/19 08:25:42;;;;;;;16.80;12.40;;;12.10;39.70;;;;;;6274862;22;19995;-78
2022/03/19 08:28:08;;;;;;;15.27;11.65;;;12.20;39.90;;;;;;6275631;22;20003;-70
2022/03/19 08:30:34;;;;;;;19.92;12.43;;;12.20;40.20;;;;;;6275857;22;20012;-71
2022/03/19 08:33:01;;;;;;;18.08;12.20;;;12.30;40.30;;;;;;6248148;22;20386;-70
2022/03/19 08:35:27;;;;;;;16.65;12.10;;;12.30;39.70;;;;;;6275712;22;19999;-70
2022/03/19 08:40:15;;;;;;;19.55;11.98;;;12.30;38.80;;;;;;6274911;22;20050;-70
2022/03/19 08:40:38;;;;;;;17.35;11.43;;;12.30;39.30;;;;;;6275671;22;20003;-69
2022/03/19 08:43:04;;;;;;;17.02;11.65;;;12.30;39.30;;;;;;6276065;22;20465;-69
2022/03/19 08:45:30;;;;;;;20.23;11.55;;;12.40;39.10;;;;;;6275968;22;20010;-69
2022/03/19 08:47:55;;;;;;;13.95;11.40;;;12.40;38.90;;;;;;6276145;22;20000;-69
2022/03/19 08:50:22;;;;;;;16.27;11.50;;;12.50;38.60;;;;;;6275934;22;20014;-69
2022/03/19 08:52:48;;;;;;;15.45;11.88;;;12.60;39.40;;;;;;6276312;22;20011;-69
2022/03/19 08:55:14;;;;;;;17.95;11.85;;;12.60;39.10;;;;;;6276417;22;19999;-69
2022/03/19 08:57:39;;;;;;;14.48;11.32;;;12.70;38.80;;;;;;6275592;22;19999;-69
2022/03/19 09:00:07;;;;;;;15.25;11.65;;;12.80;38.40;;;;;;6277220;22;20369;-69
2022/03/19 09:02:34;;;;;;;16.48;11.52;;;12.80;38.30;;;;;;6278299;22;20027;-70
2022/03/19 09:05:00;;;;;;;15.57;11.02;;;12.90;38.00;;;;;;6277992;22;20006;-69
2022/03/19 09:07:25;;;;;;;18.23;11.40;;;12.90;37.70;;;;;;6278185;22;20027;-68
2022/03/19 09:09:52;;;;;;;19.38;11.40;;;12.90;37.70;;;;;;6277957;22;20442;-69
2022/03/19 09:12:22;;;;;;;15.05;11.25;;;12.90;37.70;;;;;;6278037;22;20085;-69
2022/03/19 09:14:48;;;;;;;19.70;11.25;;;13.00;37.70;;;;;;6278420;22;20361;-69
2022/03/19 09:17:14;;;;;;;19.15;10.95;;;13.10;38.20;;;;;;6277787;22;20036;-69
2022/03/19 09:19:39;;;;;;;17.73;11.63;;;13.20;37.80;;;;;;6277924;22;20430;-69
2022/03/19 09:22:05;;;;;;;17.02;11.40;;;13.20;36.90;;;;;;6277971;22;20126;-69
2022/03/19 09:24:31;;;;;;;18.33;11.68;;;13.30;36.50;;;;;;6278385;22;19999;-69
2022/03/19 09:26:57;;;;;;;19.33;11.88;;;13.30;35.90;;;;;;6251041;22;20062;-69
2022/03/19 09:29:23;;;;;;;22.45;13.40;;;13.30;36.20;;;;;;6277996;22;20053;-69
2022/03/19 09:31:49;;;;;;;19.30;11.55;;;13.30;36.50;;;;;;6277866;22;20016;-69
2022/03/19 09:34:14;;;;;;;16.98;10.70;;;13.40;35.80;;;;;;6277941;22;19996;-69
2022/03/19 09:36:46;;;;;;;14.80;11.63;;;13.40;36.00;;;;;;6278197;22;20007;-69
2022/03/19 09:39:15;;;;;;;13.98;10.60;;;13.40;36.10;;;;;;6277950;22;19999;-69
2022/03/19 09:41:44;;;;;;;20.67;10.90;;;13.50;36.40;;;;;;6277765;22;20012;-69
2022/03/19 09:44:13;;;;;;;17.60;12.13;;;13.60;35.20;;;;;;6278123;22;20091;-69
2022/03/19 09:46:41;;;;;;;18.33;11.35;;;13.70;35.10;;;;;;6277910;22;19995;-69
2022/03/19 09:49:07;;;;;;;17.35;10.57;;;13.70;34.90;;;;;;6277702;22;20018;-69
2022/03/19 09:51:37;;;;;;;17.00;11.35;;;13.70;34.60;;;;;;6277414;22;20337;-72
2022/03/19 09:54:02;;;;;;;14.02;10.82;;;13.70;34.30;;;;;;6278040;22;20011;-69
2022/03/19 09:56:29;;;;;;;16.55;11.13;;;13.70;34.20;;;;;;6277618;22;20000;-69
2022/03/19 09:58:55;;;;;;;17.13;11.20;;;13.60;34.80;;;;;;6277936;22;20000;-70
2022/03/19 10:01:21;;;;;;;17.23;11.85;;;13.60;33.90;;;;;;6278087;22;20039;-69
2022/03/19 10:03:49;;;;;;;13.40;11.02;;;13.70;34.30;;;;;;6277521;22;20434;-69
2022/03/19 10:09:00;;;;;;;16.02;11.02;;;13.70;34.00;;;;;;6277771;22;20046;-69
2022/03/19 10:11:34;;;;;;;16.45;11.52;;;13.70;33.50;;;;;;6277005;22;20018;-70
2022/03/19 10:14:05;;;;;;;17.90;11.35;;;13.70;33.80;;;;;;6277672;22;20388;-69
2022/03/19 10:16:34;;;;;;;15.13;11.00;;;13.70;34.30;;;;;;6277936;22;20012;-69
2022/03/19 10:19:03;;;;;;;15.40;11.35;;;13.80;33.00;;;;;;6277520;22;20423;-69
2022/03/19 10:21:29;;;;;;;14.43;11.05;;;13.90;33.10;;;;;;6277472;22;20026;-69
2022/03/19 10:23:59;;;;;;;24.67;10.98;;;13.90;32.20;;;;;;6277154;22;20000;-69
2022/03/19 10:26:28;;;;;;;15.32;10.65;;;13.90;32.80;;;;;;6277332;22;20489;-70
2022/03/19 10:29:05;;;;;;;18.90;10.93;;;13.90;33.00;;;;;;6277713;22;20031;-69
2022/03/19 10:31:36;;;;;;;19.10;11.10;;;14.00;32.30;;;;;;6277232;22;20054;-69
2022/03/19 10:34:06;;;;;;;15.07;11.77;;;14.00;32.30;;;;;;6277311;22;19996;-69
2022/03/19 10:36:38;;;;;;;19.33;11.82;;;14.00;32.20;;;;;;6277281;22;20065;-69
2022/03/19 10:39:27;;;;;;;22.83;11.80;;;14.00;32.20;;;;;;6277314;22;19995;-69
2022/03/19 10:41:55;;;;;;;17.23;11.00;;;14.10;31.90;;;;;;6240343;22;20082;-69
2022/03/19 10:44:26;;;;;;;18.30;11.00;;;14.10;32.90;;;;;;6277648;22;20007;-69
2022/03/19 10:46:57;;;;;;;18.52;11.23;;;14.10;32.30;;;;;;6277396;22;20019;-69
2022/03/19 10:49:24;;;;;;;16.33;10.90;;;14.10;31.90;;;;;;6277282;22;19999;-69
2022/03/19 10:51:53;;;;;;;20.98;10.60;;;14.10;31.90;;;;;;6277051;22;20007;-69
2022/03/19 10:54:19;;;;;;;17.98;10.88;;;14.10;31.70;;;;;;6277152;22;20415;-69
2022/03/19 10:56:47;;;;;;;18.45;10.20;;;14.10;31.90;;;;;;6277006;22;20000;-69
2022/03/19 10:59:14;;;;;;;20.02;9.52;;;14.10;31.90;;;;;;6277278;22;19996;-72
2022/03/19 11:01:41;;;;;;;16.52;11.20;;;14.20;31.80;;;;;;6276897;22;19999;-69
2022/03/19 11:04:09;;;;;;;34.72;12.27;;;14.30;31.80;;;;;;6277507;22;20008;-69
2022/03/19 11:06:39;;;;;;;18.55;10.80;;;14.30;31.80;;;;;;6277413;22;20008;-69
2022/03/19 11:09:09;;;;;;;19.48;10.38;;;14.30;31.90;;;;;;6277372;22;20027;-69
2022/03/19 11:11:57;;;;;;;13.63;10.30;;;14.40;33.00;;;;;;6277359;22;20346;-69
2022/03/19 11:14:26;;;;;;;13.43;9.60;;;14.50;31.30;;;;;;6277048;22;20056;-70
2022/03/19 11:17:25;;;;;;;17.10;9.75;;;14.50;31.70;;;;;;6277077;22;20004;-69
2022/03/19 11:19:55;;;;;;;17.48;10.43;;;14.60;31.30;;;;;;6277116;22;19995;-69
2022/03/19 11:22:21;;;;;;;16.73;10.63;;;14.70;30.70;;;;;;6276976;22;20079;-69
2022/03/19 11:25:02;;;;;;;15.77;9.68;;;14.80;30.00;;;;;;6276809;22;19995;-69
2022/03/19 11:27:32;;;;;;;20.90;10.43;;;14.80;30.00;;;;;;6277189;22;20003;-70
2022/03/19 11:29:59;;;;;;;28.48;11.05;;;14.80;30.50;;;;;;6276710;22;20308;-69
2022/03/19 11:32:26;;;;;;;20.70;10.43;;;14.80;30.00;;;;;;6277040;22;20058;-69
2022/03/19 11:34:59;;;;;;;18.55;9.50;;;14.90;29.80;;;;;;6276666;22;19999;-69
2022/03/19 11:37:45;;;;;;;17.00;9.68;;;14.90;29.30;;;;;;6276769;22;20011;-69
2022/03/19 11:40:11;;;;;;;19.13;9.60;;;14.80;29.80;;;;;;6276524;22;20415;-72
2022/03/19 11:42:54;;;;;;;19.35;10.25;;;14.80;30.00;;;;;;6276713;22;20016;-69
2022/03/19 11:45:19;;;;;;;14.52;9.43;;;14.90;29.90;;;;;;6276732;22;20419;-69
2022/03/19 11:47:45;;;;;;;17.08;9.23;;;15.00;29.70;;;;;;6277526;22;20079;-69
2022/03/19 11:50:19;;;;;;;12.27;8.85;;;15.10;29.20;;;;;;6276492;22;20003;-69
2022/03/19 11:52:54;;;;;;;13.65;8.75;;;15.10;29.50;;;;;;6276537;22;20077;-69
2022/03/19 11:55:23;;;;;;;13.93;8.90;;;15.20;28.60;;;;;;6276930;22;20011;-69
2022/03/19 11:57:56;;;;;;;13.05;9.65;;;15.20;28.80;;;;;;6276504;22;20437;-69
2022/03/19 12:00:25;;;;;;;16.27;9.50;;;15.20;28.90;;;;;;6276498;22;20079;-69
2022/03/19 12:03:15;;;;;;;11.95;9.00;;;15.20;29.80;;;;;;6276612;22;20034;-69
2022/03/19 12:05:42;;;;;;;15.55;10.25;;;15.20;28.20;;;;;;6276365;22;20029;-69
2022/03/19 12:08:10;;;;;;;16.75;9.10;;;15.20;28.90;;;;;;6276581;22;20003;-72
2022/03/19 12:10:57;;;;;;;13.05;8.90;;;15.20;28.60;;;;;;6276404;22;20134;-70
2022/03/19 12:13:28;;;;;;;15.52;8.63;;;15.20;28.70;;;;;;6276640;22;20003;-70
2022/03/19 12:16:08;;;;;;;14.47;9.77;;;15.20;28.80;;;;;;6276451;22;20004;-70
2022/03/19 12:18:39;;;;;;;14.30;8.43;;;15.20;28.40;;;;;;6276777;22;20222;-69
2022/03/19 12:21:11;;;;;;;17.43;9.33;;;15.30;28.10;;;;;;6276636;22;20004;-69
2022/03/19 12:23:42;;;;;;;14.50;9.10;;;15.30;28.60;;;;;;6276669;22;19996;-69
2022/03/19 12:26:10;;;;;;;12.00;8.85;;;15.30;28.50;;;;;;6276319;22;20030;-69
2022/03/19 12:28:36;;;;;;;11.23;8.73;;;15.40;28.40;;;;;;6276437;22;20011;-69
2022/03/19 12:31:11;;;;;;;14.25;8.35;;;15.40;28.50;;;;;;6276228;22;20015;-69
2022/03/19 12:33:38;;;;;;;13.40;9.00;;;15.50;28.30;;;;;;6277832;22;20078;-69
2022/03/19 12:36:31;;;;;;;11.68;8.80;;;15.50;28.40;;;;;;6279840;22;20075;-72
2022/03/19 12:39:01;;;;;;;;;;;15.60;28.70;;;;;;6248665;22;20019;-70
2022/03/19 12:41:27;;;;;;;14.70;9.27;;;15.70;28.60;;;;;;6279793;22;19934;-69
2022/03/19 12:43:58;;;;;;;14.10;9.32;;;15.70;28.40;;;;;;6279981;22;20000;-69
2022/03/19 12:46:25;;;;;;;13.77;9.30;;;15.90;28.10;;;;;;6280068;22;20086;-69
2022/03/19 12:48:52;;;;;;;13.93;8.77;;;15.90;28.50;;;;;;6279874;22;20003;-70